createdAt,value
2017-08-15T00:02:04.608Z,79.50
2017-08-15T00:04:33.679Z,80.10
2017-08-15T00:07:01.936Z,80.00
2017-08-15T00:09:30.181Z,80.30
2017-08-15T00:11:58.426Z,79.90
2017-08-15T00:14:26.655Z,79.90
2017-08-15T00:16:54.983Z,79.60
2017-08-15T00:19:23.244Z,79.40
2017-08-15T00:21:51.613Z,79.40
2017-08-15T00:24:19.886Z,79.60
2017-08-15T00:26:49.088Z,79.70
2017-08-15T00:29:17.344Z,79.90
2017-08-15T00:31:45.601Z,80.40
2017-08-15T00:34:13.886Z,80.60
2017-08-15T00:36:42.878Z,81.70
2017-08-15T00:39:11.873Z,81.60
2017-08-15T00:41:40.902Z,82.30
2017-08-15T00:44:09.166Z,81.60
2017-08-15T00:46:37.872Z,81.70
2017-08-15T00:49:06.121Z,81.80
2017-08-15T00:51:34.427Z,82.10
2017-08-15T00:54:02.684Z,82.10
2017-08-15T00:56:30.945Z,82.10
2017-08-15T00:58:59.945Z,82.30
2017-08-15T01:01:28.201Z,82.30
2017-08-15T01:03:56.521Z,82.30
2017-08-15T01:06:24.742Z,82.30
2017-08-15T01:08:53.754Z,82.50
2017-08-15T01:11:22.762Z,82.40
2017-08-15T01:13:51.019Z,82.40
2017-08-15T01:16:19.248Z,82.40
2017-08-15T01:18:47.507Z,82.40
2017-08-15T01:21:15.751Z,83.20
2017-08-15T01:23:44.784Z,82.80
2017-08-15T01:26:13.035Z,82.80
2017-08-15T01:28:42.037Z,83.10
2017-08-15T01:31:10.335Z,82.50
2017-08-15T01:33:38.627Z,82.50
2017-08-15T01:36:06.854Z,82.70
2017-08-15T01:38:35.887Z,83.70
2017-08-15T01:41:04.172Z,83.70
2017-08-15T01:43:32.442Z,84.00
2017-08-15T01:46:00.689Z,83.50
2017-08-15T01:48:28.941Z,83.40
2017-08-15T01:50:57.210Z,83.20
2017-08-15T01:53:25.429Z,83.30
2017-08-15T01:55:53.728Z,83.50
2017-08-15T01:58:21.965Z,83.50
2017-08-15T02:00:51.010Z,84.00
2017-08-15T02:03:19.275Z,83.90
2017-08-15T02:05:47.552Z,84.40
2017-08-15T02:08:15.790Z,84.20
2017-08-15T02:10:44.831Z,84.70
2017-08-15T02:13:13.084Z,84.60
2017-08-15T02:15:41.338Z,84.50
2017-08-15T02:18:09.609Z,84.20
2017-08-15T02:20:38.635Z,85.20
2017-08-15T02:23:06.886Z,85.20
2017-08-15T02:25:35.902Z,84.90
2017-08-15T02:28:04.187Z,84.90
2017-08-15T02:30:32.457Z,85.40
2017-08-15T02:33:00.703Z,84.60
2017-08-15T02:35:28.924Z,84.90
2017-08-15T02:37:57.161Z,84.90
2017-08-15T02:40:26.146Z,84.70
2017-08-15T02:42:55.174Z,84.60
2017-08-15T02:45:23.440Z,84.50
2017-08-15T02:47:52.436Z,85.50
2017-08-15T02:50:21.442Z,84.90
2017-08-15T02:52:49.713Z,84.90
2017-08-15T02:55:18.702Z,85.50
2017-08-15T02:57:47.694Z,84.50
2017-08-15T03:00:16.713Z,84.60
2017-08-15T03:02:44.954Z,84.60
2017-08-15T03:05:13.962Z,85.00
2017-08-15T03:07:42.191Z,84.90
2017-08-15T03:10:10.442Z,84.80
2017-08-15T03:12:38.735Z,84.30
2017-08-15T03:15:06.964Z,84.70
2017-08-15T03:17:36.003Z,84.80
2017-08-15T03:20:04.234Z,84.90
2017-08-15T03:22:32.498Z,84.70
2017-08-15T03:25:01.511Z,85.40
2017-08-15T03:27:29.799Z,84.80
2017-08-15T03:29:58.050Z,84.90
2017-08-15T03:32:27.086Z,85.50
2017-08-15T03:34:55.319Z,85.50
2017-08-15T03:37:24.319Z,85.60
2017-08-15T03:39:53.356Z,85.20
2017-08-15T03:42:21.588Z,85.20
2017-08-15T03:44:50.638Z,84.60
2017-08-15T03:47:18.880Z,84.40
2017-08-15T03:49:47.122Z,84.30
2017-08-15T03:52:15.357Z,84.50
2017-08-15T03:54:46.185Z,84.70
2017-08-15T03:57:15.198Z,84.10
2017-08-15T03:59:43.444Z,84.10
2017-08-15T04:02:11.675Z,84.30
2017-08-15T04:04:40.851Z,84.60
2017-08-15T04:07:09.111Z,84.60
2017-08-15T04:09:37.390Z,84.60
2017-08-15T04:12:05.629Z,84.80
2017-08-15T04:14:34.671Z,85.10
2017-08-15T04:17:02.917Z,85.10
2017-08-15T04:19:31.185Z,84.90
2017-08-15T04:22:00.215Z,85.40
2017-08-15T04:24:28.804Z,85.40
2017-08-15T04:26:57.052Z,85.30
2017-08-15T04:29:26.071Z,85.20
2017-08-15T04:31:54.655Z,85.30
2017-08-15T04:34:22.926Z,85.10
2017-08-15T04:36:51.162Z,85.20
2017-08-15T04:39:20.170Z,85.00
2017-08-15T04:41:49.006Z,85.00
2017-08-15T04:44:17.247Z,84.90
2017-08-15T04:46:45.518Z,85.00
2017-08-15T04:49:13.804Z,84.70
2017-08-15T04:51:42.785Z,84.20
2017-08-15T04:54:11.819Z,83.80
2017-08-15T04:56:40.034Z,83.70
2017-08-15T04:59:09.057Z,82.30
2017-08-15T05:01:37.314Z,82.30
2017-08-15T05:04:05.566Z,80.80
2017-08-15T05:06:33.821Z,79.60
2017-08-15T05:09:02.192Z,78.50
2017-08-15T05:11:30.447Z,77.70
2017-08-15T05:13:58.693Z,77.30
2017-08-15T05:16:27.743Z,77.30
2017-08-15T05:18:56.342Z,77.30
2017-08-15T05:21:24.585Z,77.00
2017-08-15T05:23:52.834Z,77.10
2017-08-15T05:26:21.095Z,76.80
2017-08-15T05:28:49.330Z,76.90
2017-08-15T05:31:17.566Z,76.30
2017-08-15T05:33:45.820Z,76.10
2017-08-15T05:36:14.082Z,75.90
2017-08-15T05:38:42.311Z,76.30
2017-08-15T05:41:10.587Z,76.10
2017-08-15T05:43:38.831Z,75.80
2017-08-15T05:46:07.181Z,75.60
2017-08-15T05:48:35.425Z,74.80
2017-08-15T05:51:04.429Z,75.20
2017-08-15T05:53:32.664Z,75.20
2017-08-15T05:56:00.927Z,74.30
2017-08-15T05:58:29.274Z,74.80
2017-08-15T06:00:57.524Z,74.70
2017-08-15T06:03:26.582Z,74.40
2017-08-15T06:05:54.822Z,74.30
2017-08-15T06:08:23.062Z,73.60
2017-08-15T06:10:51.331Z,74.20
2017-08-15T06:13:19.555Z,73.50
2017-08-15T06:15:47.857Z,73.30
2017-08-15T06:18:16.115Z,73.70
2017-08-15T06:20:44.358Z,73.20
2017-08-15T06:23:13.403Z,73.40
2017-08-15T06:25:41.653Z,73.30
2017-08-15T06:28:09.947Z,72.90
2017-08-15T06:30:38.203Z,72.40
2017-08-15T06:33:06.477Z,72.70
2017-08-15T06:35:34.726Z,72.60
2017-08-15T06:38:03.736Z,71.90
2017-08-15T06:40:31.989Z,71.90
2017-08-15T06:43:00.242Z,71.40
2017-08-15T06:45:28.517Z,70.80
2017-08-15T06:47:56.765Z,70.80
2017-08-15T06:50:25.014Z,70.40
2017-08-15T06:52:54.044Z,70.40
2017-08-15T06:55:22.283Z,70.30
2017-08-15T06:57:50.567Z,70.30
2017-08-15T07:00:19.567Z,70.40
2017-08-15T07:02:47.888Z,70.40
2017-08-15T07:05:16.128Z,70.40
2017-08-15T07:07:44.418Z,69.70
2017-08-15T07:10:12.679Z,69.00
2017-08-15T07:12:40.942Z,69.70
2017-08-15T07:15:09.995Z,69.40
2017-08-15T07:17:38.246Z,69.40
2017-08-15T07:20:06.483Z,68.60
2017-08-15T07:22:35.543Z,68.00
2017-08-15T07:25:03.818Z,68.00
2017-08-15T07:27:32.068Z,67.80
2017-08-15T07:30:00.319Z,68.10
2017-08-15T07:32:28.568Z,67.60
2017-08-15T07:34:56.845Z,66.60
2017-08-15T07:37:25.099Z,67.00
2017-08-15T07:39:53.333Z,67.20
2017-08-15T07:42:21.607Z,66.80
2017-08-15T07:44:49.844Z,66.10
2017-08-15T07:47:18.111Z,66.50
2017-08-15T07:49:46.391Z,65.30
2017-08-15T07:52:14.633Z,65.20
2017-08-15T07:54:42.914Z,65.00
2017-08-15T07:57:11.143Z,63.10
2017-08-15T07:59:40.177Z,62.50
2017-08-15T08:02:08.498Z,61.70
2017-08-15T08:04:36.747Z,61.40
2017-08-15T08:07:05.000Z,60.20
2017-08-15T08:09:33.347Z,60.00
2017-08-15T08:12:01.612Z,59.80
2017-08-15T08:14:29.867Z,59.60
2017-08-15T08:16:58.264Z,59.70
2017-08-15T08:19:26.513Z,59.80
2017-08-15T08:21:54.780Z,58.30
2017-08-15T08:24:23.004Z,57.60
2017-08-15T08:26:51.294Z,57.00
2017-08-15T08:29:19.530Z,58.80
2017-08-15T08:31:48.204Z,58.00
2017-08-15T08:34:17.219Z,56.80
2017-08-15T08:36:45.494Z,56.70
2017-08-15T08:39:13.735Z,54.70
2017-08-15T08:41:41.950Z,55.20
2017-08-15T08:44:10.235Z,52.70
2017-08-15T08:46:38.495Z,52.80
2017-08-15T08:49:06.733Z,52.00
2017-08-15T08:51:35.735Z,51.00
2017-08-15T08:54:04.755Z,50.70
2017-08-15T08:56:33.005Z,50.60
2017-08-15T08:59:01.273Z,51.10
2017-08-15T09:01:30.418Z,50.50
2017-08-15T09:03:58.686Z,50.50
2017-08-15T09:06:26.965Z,50.40
2017-08-15T09:08:55.269Z,50.20
2017-08-15T09:11:24.255Z,49.30
2017-08-15T09:13:52.487Z,50.60
2017-08-15T09:16:20.799Z,50.10
2017-08-15T09:18:49.046Z,49.50
2017-08-15T09:21:17.320Z,48.90
2017-08-15T09:23:45.907Z,49.70
2017-08-15T09:26:14.593Z,50.40
2017-08-15T09:28:48.539Z,51.10
2017-08-15T09:31:16.793Z,50.60
2017-08-15T09:33:45.034Z,51.60
2017-08-15T09:36:14.071Z,52.20
2017-08-15T09:38:42.324Z,52.10
2017-08-15T09:41:10.573Z,51.80
2017-08-15T09:43:38.864Z,51.70
2017-08-15T09:46:07.894Z,51.60
2017-08-15T09:48:36.114Z,51.60
2017-08-15T09:51:04.373Z,51.90
2017-08-15T09:53:32.612Z,52.70
2017-08-15T09:56:00.898Z,53.00
2017-08-15T09:58:34.892Z,52.60
2017-08-15T10:01:03.170Z,53.20
2017-08-15T10:03:31.419Z,53.10
2017-08-15T10:05:59.703Z,53.90
2017-08-15T10:08:28.745Z,53.70
2017-08-15T10:10:56.990Z,54.30
2017-08-15T10:13:25.309Z,54.70
2017-08-15T10:15:53.542Z,54.90
2017-08-15T10:18:21.832Z,54.80
2017-08-15T10:20:50.070Z,54.40
2017-08-15T10:23:18.298Z,54.80
2017-08-15T10:25:46.566Z,55.70
2017-08-15T10:28:14.835Z,56.30
2017-08-15T10:30:43.407Z,56.20
2017-08-15T10:33:12.451Z,56.90
2017-08-15T10:35:40.690Z,56.30
2017-08-15T10:38:08.982Z,56.70
2017-08-15T10:40:37.197Z,57.40
2017-08-15T10:43:05.492Z,56.90
2017-08-15T10:45:33.742Z,56.90
2017-08-15T10:48:02.005Z,56.90
2017-08-15T10:50:30.267Z,57.00
2017-08-15T10:52:58.504Z,56.90
2017-08-15T10:55:27.545Z,56.30
2017-08-15T10:57:55.849Z,56.30
2017-08-15T11:00:24.073Z,56.80
2017-08-15T11:02:52.326Z,56.30
2017-08-15T11:05:21.382Z,56.10
2017-08-15T11:07:49.636Z,56.10
2017-08-15T11:10:17.874Z,55.50
2017-08-15T11:12:46.144Z,56.00
2017-08-15T11:15:14.406Z,56.10
2017-08-15T11:17:42.626Z,57.10
2017-08-15T11:20:10.878Z,57.70
2017-08-15T11:22:39.182Z,57.20
2017-08-15T11:25:08.283Z,59.30
2017-08-15T11:27:36.559Z,59.20
2017-08-15T11:30:04.842Z,58.80
2017-08-15T11:32:33.082Z,60.00
2017-08-15T11:35:01.411Z,60.60
2017-08-15T11:37:30.378Z,63.20
2017-08-15T11:39:59.386Z,62.40
2017-08-15T11:42:27.634Z,62.40
2017-08-15T11:44:56.646Z,63.30
2017-08-15T11:47:24.919Z,62.80
2017-08-15T11:49:53.926Z,63.60
2017-08-15T11:52:22.171Z,63.60
2017-08-15T11:54:51.231Z,62.60
2017-08-15T11:57:19.490Z,62.60
2017-08-15T11:59:47.773Z,60.70
2017-08-15T12:02:15.998Z,60.50
2017-08-15T12:04:45.062Z,59.70
2017-08-15T12:07:13.834Z,59.70
2017-08-15T12:09:42.904Z,58.40
2017-08-15T12:12:11.179Z,58.00
2017-08-15T12:14:39.454Z,58.60
2017-08-15T12:17:08.483Z,56.70
2017-08-15T12:19:36.977Z,56.70
2017-08-15T12:22:05.268Z,55.50
2017-08-15T12:24:33.563Z,54.80
2017-08-15T12:27:01.803Z,54.60
2017-08-15T12:29:30.071Z,54.60
2017-08-15T12:31:58.322Z,55.00
2017-08-15T12:34:26.586Z,54.70
2017-08-15T12:36:55.615Z,54.50
2017-08-15T12:39:23.912Z,54.50
2017-08-15T12:41:52.198Z,53.90
2017-08-15T12:44:20.451Z,53.40
2017-08-15T12:46:48.748Z,54.70
2017-08-15T12:49:17.900Z,54.00
2017-08-15T12:51:46.165Z,54.70
2017-08-15T12:54:15.176Z,52.40
2017-08-15T12:56:43.418Z,52.40
2017-08-15T12:59:11.696Z,52.50
2017-08-15T13:01:39.943Z,52.30
2017-08-15T13:04:08.318Z,53.40
2017-08-15T13:06:36.557Z,51.80
2017-08-15T13:09:04.806Z,51.60
2017-08-15T13:11:33.874Z,50.30
2017-08-15T13:14:02.113Z,50.30
2017-08-15T13:16:30.917Z,50.00
2017-08-15T13:18:59.198Z,49.80
2017-08-15T13:21:27.475Z,50.50
2017-08-15T13:23:56.454Z,49.30
2017-08-15T13:26:24.706Z,50.70
2017-08-15T13:28:53.740Z,48.10
2017-08-15T13:31:22.506Z,48.00
2017-08-15T13:33:51.019Z,49.60
2017-08-15T13:36:19.258Z,49.00
2017-08-15T13:38:48.291Z,48.50
2017-08-15T13:41:16.515Z,48.40
2017-08-15T13:43:45.543Z,45.80
2017-08-15T13:46:13.809Z,45.80
2017-08-15T13:48:42.070Z,47.20
2017-08-15T13:51:11.110Z,46.50
2017-08-15T13:53:39.383Z,46.20
2017-08-15T13:56:07.616Z,46.30
2017-08-15T13:58:36.755Z,45.30
2017-08-15T14:01:04.985Z,45.20
2017-08-15T14:03:33.260Z,45.50
2017-08-15T14:06:02.302Z,46.00
2017-08-15T14:08:31.198Z,46.00
2017-08-15T14:10:59.443Z,46.70
2017-08-15T14:13:27.721Z,47.60
2017-08-15T14:15:56.762Z,48.90
2017-08-15T14:18:25.050Z,48.90
2017-08-15T14:20:53.474Z,49.50
2017-08-15T14:23:22.464Z,51.00
2017-08-15T14:25:50.746Z,50.90
2017-08-15T14:28:19.014Z,51.40
2017-08-15T14:30:47.283Z,51.70
2017-08-15T14:33:16.355Z,51.80
2017-08-15T14:35:44.667Z,51.90
2017-08-15T14:38:13.694Z,52.50
2017-08-15T14:40:42.013Z,52.50
2017-08-15T14:43:10.270Z,52.50
2017-08-15T14:45:38.628Z,53.10
2017-08-15T14:48:07.758Z,53.30
2017-08-15T14:50:36.004Z,53.10
2017-08-15T14:53:04.293Z,54.20
2017-08-15T14:55:32.535Z,55.40
2017-08-15T14:58:01.575Z,56.00
2017-08-15T15:00:29.819Z,56.00
2017-08-15T15:02:58.131Z,56.30
2017-08-15T15:05:26.414Z,56.50
2017-08-15T15:07:54.656Z,56.30
2017-08-15T15:10:22.950Z,56.70
2017-08-15T15:12:51.189Z,57.00
2017-08-15T15:15:19.455Z,58.30
2017-08-15T15:17:48.483Z,59.60
2017-08-15T15:20:16.723Z,59.60
2017-08-15T15:22:45.122Z,59.00
2017-08-15T15:25:14.106Z,58.70
2017-08-15T15:27:43.156Z,58.30
2017-08-15T15:30:11.689Z,58.30
2017-08-15T15:32:39.936Z,58.30
2017-08-15T15:35:09.239Z,57.60
2017-08-15T15:37:37.507Z,57.60
2017-08-15T15:40:06.711Z,57.80
2017-08-15T15:42:34.950Z,57.50
2017-08-15T15:45:04.197Z,58.60
2017-08-15T15:47:32.492Z,59.00
2017-08-15T15:50:01.530Z,60.30
2017-08-15T15:52:29.787Z,60.30
2017-08-15T15:54:58.058Z,60.30
2017-08-15T15:57:26.311Z,60.40
2017-08-15T15:59:55.450Z,61.50
2017-08-15T16:02:24.464Z,61.60
2017-08-15T16:04:52.775Z,61.60
2017-08-15T16:07:21.053Z,62.00
2017-08-15T16:09:49.306Z,62.30
2017-08-15T16:12:17.560Z,62.50
2017-08-15T16:14:45.830Z,62.40
2017-08-15T16:17:14.081Z,62.50
2017-08-15T16:19:42.398Z,62.20
2017-08-15T16:22:10.867Z,62.20
2017-08-15T16:24:39.122Z,62.60
2017-08-15T16:27:08.295Z,62.70
2017-08-15T16:29:36.564Z,62.70
2017-08-15T16:32:04.836Z,63.00
2017-08-15T16:34:33.106Z,62.90
2017-08-15T16:37:02.397Z,63.20
2017-08-15T16:39:30.641Z,63.60
2017-08-15T16:41:58.934Z,63.70
2017-08-15T16:44:27.187Z,63.90
2017-08-15T16:46:55.433Z,64.20
2017-08-15T16:49:23.706Z,64.40
2017-08-15T16:51:51.983Z,64.30
2017-08-15T16:54:21.061Z,64.60
2017-08-15T16:56:49.325Z,64.50
2017-08-15T16:59:17.640Z,64.70
2017-08-15T17:01:45.968Z,64.80
2017-08-15T17:04:14.225Z,64.80
2017-08-15T17:06:43.210Z,64.90
2017-08-15T17:09:12.844Z,65.00
2017-08-15T17:11:41.117Z,64.90
2017-08-15T17:14:09.412Z,65.10
2017-08-15T17:16:37.645Z,65.20
2017-08-15T17:19:07.085Z,67.10
2017-08-15T17:21:35.359Z,67.00
2017-08-15T17:24:03.643Z,67.40
2017-08-15T17:26:31.874Z,69.00
2017-08-15T17:29:00.145Z,68.20
2017-08-15T17:31:28.419Z,68.80
2017-08-15T17:33:56.673Z,69.60
2017-08-15T17:36:25.023Z,70.60
2017-08-15T17:38:54.051Z,71.70
2017-08-15T17:41:22.294Z,71.60
2017-08-15T17:43:51.290Z,72.00
2017-08-15T17:46:19.558Z,72.60
2017-08-15T17:48:49.656Z,74.10
2017-08-15T17:51:18.739Z,74.50
2017-08-15T17:53:47.069Z,74.50
2017-08-15T17:56:15.313Z,75.50
2017-08-15T17:58:43.652Z,75.70
2017-08-15T18:01:11.959Z,75.40
2017-08-15T18:03:40.994Z,75.10
2017-08-15T18:06:09.301Z,75.10
2017-08-15T18:08:37.546Z,75.60
2017-08-15T18:11:05.830Z,74.70
2017-08-15T18:13:34.069Z,74.90
2017-08-15T18:16:03.126Z,74.90
2017-08-15T18:18:32.222Z,74.70
2017-08-15T18:21:00.502Z,74.70
2017-08-15T18:23:28.814Z,74.70
2017-08-15T18:25:57.856Z,75.80
2017-08-15T18:28:26.129Z,75.80
2017-08-15T18:30:54.421Z,75.80
2017-08-15T18:33:22.734Z,76.70
2017-08-15T18:35:51.266Z,77.30
2017-08-15T18:38:19.946Z,77.40
2017-08-15T18:40:48.196Z,77.90
2017-08-15T18:43:16.509Z,78.30
2017-08-15T18:45:44.815Z,79.20
2017-08-15T18:48:13.061Z,79.70
2017-08-15T18:50:41.357Z,79.20
2017-08-15T18:53:09.672Z,79.70
2017-08-15T18:55:38.722Z,80.30
2017-08-15T18:58:06.998Z,80.20
2017-08-15T19:00:35.320Z,80.70
2017-08-15T19:03:04.390Z,81.40
2017-08-15T19:05:32.639Z,81.40
2017-08-15T19:08:00.971Z,81.60
2017-08-15T19:10:30.850Z,81.90
2017-08-15T19:12:59.435Z,81.80
2017-08-15T19:15:27.703Z,81.80
2017-08-15T19:17:56.285Z,81.20
2017-08-15T19:20:24.851Z,81.50
2017-08-15T19:22:53.836Z,81.60
2017-08-15T19:25:25.525Z,81.90
2017-08-15T19:27:55.427Z,81.90
2017-08-15T19:30:23.765Z,82.10
2017-08-15T19:32:52.098Z,82.60
2017-08-15T19:35:21.236Z,82.80
2017-08-15T19:37:49.585Z,83.60
2017-08-15T19:40:18.016Z,83.60
2017-08-15T19:42:47.837Z,83.90
2017-08-15T19:45:16.222Z,83.90
2017-08-15T19:47:45.502Z,84.20
2017-08-15T19:50:14.738Z,84.40
2017-08-15T19:52:43.068Z,84.30
2017-08-15T19:55:12.901Z,84.30
2017-08-15T19:57:42.249Z,83.70
2017-08-15T20:00:11.508Z,83.70
2017-08-15T20:02:40.627Z,83.40
2017-08-15T20:05:08.907Z,83.50
2017-08-15T20:07:37.214Z,83.40
2017-08-15T20:10:05.553Z,83.80
2017-08-15T20:12:33.823Z,83.80
2017-08-15T20:15:02.085Z,84.50
2017-08-15T20:17:30.393Z,84.80
2017-08-15T20:19:58.675Z,84.70
2017-08-15T20:22:27.300Z,84.80
2017-08-15T20:24:55.578Z,84.70
2017-08-15T20:27:23.891Z,84.70
2017-08-15T20:29:52.176Z,84.60
2017-08-15T20:32:20.461Z,84.70
2017-08-15T20:34:48.759Z,84.90
2017-08-15T20:37:17.070Z,85.00
2017-08-15T20:39:45.363Z,85.10
2017-08-15T20:42:14.442Z,84.80
2017-08-15T20:44:43.152Z,84.80
2017-08-15T20:47:12.208Z,84.30
2017-08-15T20:49:41.304Z,84.30
2017-08-15T20:52:09.612Z,84.20
2017-08-15T20:54:38.750Z,84.20
2017-08-15T20:57:07.208Z,84.20
2017-08-15T20:59:36.377Z,84.00
2017-08-15T21:02:04.686Z,84.00
2017-08-15T21:04:33.089Z,84.00
2017-08-15T21:07:01.341Z,83.80
2017-08-15T21:09:29.597Z,83.60
2017-08-15T21:11:58.736Z,83.10
2017-08-15T21:14:27.027Z,83.00
2017-08-15T21:16:56.114Z,82.70
2017-08-15T21:19:25.265Z,82.50
2017-08-15T21:21:54.298Z,82.60
2017-08-15T21:24:22.894Z,82.50
2017-08-15T21:26:52.565Z,82.90
2017-08-15T21:29:21.581Z,82.40
2017-08-15T21:31:52.419Z,82.10
2017-08-15T21:34:20.699Z,82.10
2017-08-15T21:36:49.051Z,82.10
2017-08-15T21:39:18.116Z,83.10
2017-08-15T21:41:46.533Z,83.10
2017-08-15T21:44:15.598Z,82.90
2017-08-15T21:46:43.870Z,82.90
2017-08-15T21:49:12.134Z,82.70
2017-08-15T21:51:41.158Z,82.40
2017-08-15T21:54:09.454Z,81.80
2017-08-15T21:56:37.790Z,81.90
2017-08-15T21:59:06.512Z,81.60
2017-08-15T22:01:40.463Z,81.90
2017-08-15T22:04:08.701Z,82.50
2017-08-15T22:06:37.223Z,82.20
2017-08-15T22:09:06.340Z,81.60
2017-08-15T22:11:35.172Z,81.40
2017-08-15T22:14:04.857Z,80.90
2017-08-15T22:16:33.147Z,80.70
2017-08-15T22:19:01.974Z,81.00
2017-08-15T22:21:30.256Z,82.00
2017-08-15T22:23:58.526Z,82.00
2017-08-15T22:26:26.791Z,81.90
2017-08-15T22:28:55.155Z,82.10
2017-08-15T22:31:24.182Z,82.70
2017-08-15T22:33:52.484Z,82.70
2017-08-15T22:36:20.759Z,82.80
2017-08-15T22:38:49.134Z,83.20
2017-08-15T22:41:17.423Z,83.10
2017-08-15T22:43:45.690Z,83.60
2017-08-15T22:46:13.964Z,83.20
2017-08-15T22:48:42.254Z,82.80
2017-08-15T22:51:10.524Z,82.90
2017-08-15T22:53:38.934Z,82.40
2017-08-15T22:56:07.184Z,82.00
2017-08-15T22:58:35.456Z,82.60
2017-08-15T23:01:03.953Z,82.50
2017-08-15T23:03:32.525Z,82.70
2017-08-15T23:06:00.775Z,83.10
2017-08-15T23:08:29.033Z,83.70
2017-08-15T23:10:58.077Z,83.40
2017-08-15T23:13:26.359Z,83.40
2017-08-15T23:15:54.610Z,84.40
2017-08-15T23:18:22.867Z,84.70
2017-08-15T23:20:51.234Z,85.40
2017-08-15T23:23:20.246Z,85.30
2017-08-15T23:25:48.508Z,85.20
2017-08-15T23:28:17.522Z,86.30
2017-08-15T23:30:45.817Z,86.30
2017-08-15T23:33:14.082Z,86.30
2017-08-15T23:35:42.327Z,86.50
2017-08-15T23:38:10.597Z,86.10
2017-08-15T23:40:39.311Z,86.60
2017-08-15T23:43:08.341Z,86.20
2017-08-15T23:45:36.608Z,86.10
2017-08-15T23:48:04.864Z,86.50
2017-08-15T23:50:33.128Z,86.30
2017-08-15T23:53:02.128Z,86.20
2017-08-15T23:55:30.390Z,86.20
2017-08-15T23:57:58.682Z,85.70
